sensor_id;sensor_type;location;lat;lon;timestamp;temperature;humidity
20973;DHT22;10645;52.370;13.314;2024-03-07T00:02:20;6.20;99.90
20973;DHT22;10645;52.370;13.314;2024-03-07T00:04:46;6.20;99.90
20973;DHT22;10645;52.370;13.314;2024-03-07T00:07:12;6.20;99.90
20973;DHT22;10645;52.370;13.314;2024-03-07T00:09:39;6.10;99.90
20973;DHT22;10645;52.370;13.314;2024-03-07T00:12:05;6.20;99.90
20973;DHT22;10645;52.370;13.314;2024-03-07T00:14:33;6.20;99.90
20973;DHT22;10645;52.370;13.314;2024-03-07T00:17:01;6.20;99.90
20973;DHT22;10645;52.370;13.314;2024-03-07T00:19:29;6.20;99.90
20973;DHT22;10645;52.370;13.314;2024-03-07T00:21:56;6.20;99.90
20973;DHT22;10645;52.370;13.314;2024-03-07T00:24:23;6.20;99.90
20973;DHT22;10645;52.370;13.314;2024-03-07T00:26:49;6.20;99.90
20973;DHT22;10645;52.370;13.314;2024-03-07T00:29:17;6.20;99.90
20973;DHT22;10645;52.370;13.314;2024-03-07T00:31:47;6.20;99.90
20973;DHT22;10645;52.370;13.314;2024-03-07T00:34:14;6.10;99.90
20973;DHT22;10645;52.370;13.314;2024-03-07T00:36:42;6.10;99.90
20973;DHT22;10645;52.370;13.314;2024-03-07T00:39:09;6.10;99.90
20973;DHT22;10645;52.370;13.314;2024-03-07T00:41:41;6.10;99.90
20973;DHT22;10645;52.370;13.314;2024-03-07T00:44:08;6.10;99.90
20973;DHT22;10645;52.370;13.314;2024-03-07T00:46:35;6.10;99.90
20973;DHT22;10645;52.370;13.314;2024-03-07T00:49:02;6.10;99.90
20973;DHT22;10645;52.370;13.314;2024-03-07T00:51:29;6.00;99.90
20973;DHT22;10645;52.370;13.314;2024-03-07T00:53:55;6.00;99.90
20973;DHT22;10645;52.370;13.314;2024-03-07T00:56:22;6.10;99.90
20973;DHT22;10645;52.370;13.314;2024-03-07T00:58:48;6.10;99.90
20973;DHT22;10645;52.370;13.314;2024-03-07T01:01:15;6.10;99.90
20973;DHT22;10645;52.370;13.314;2024-03-07T01:03:45;6.10;99.90
20973;DHT22;10645;52.370;13.314;2024-03-07T01:06:12;6.10;99.90
20973;DHT22;10645;52.370;13.314;2024-03-07T01:08:38;6.10;99.90
20973;DHT22;10645;52.370;13.314;2024-03-07T01:11:05;6.10;99.90
20973;DHT22;10645;52.370;13.314;2024-03-07T01:13:41;6.00;99.90
20973;DHT22;10645;52.370;13.314;2024-03-07T01:16:08;6.00;99.90
20973;DHT22;10645;52.370;13.314;2024-03-07T01:18:34;6.00;99.90
20973;DHT22;10645;52.370;13.314;2024-03-07T01:21:01;6.00;99.90
20973;DHT22;10645;52.370;13.314;2024-03-07T01:23:28;6.00;99.90
20973;DHT22;10645;52.370;13.314;2024-03-07T01:25:58;6.00;99.90
20973;DHT22;10645;52.370;13.314;2024-03-07T01:28:25;6.00;99.90
20973;DHT22;10645;52.370;13.314;2024-03-07T01:30:52;6.00;99.90
20973;DHT22;10645;52.370;13.314;2024-03-07T01:33:19;5.90;99.90
20973;DHT22;10645;52.370;13.314;2024-03-07T01:35:45;5.90;99.90
20973;DHT22;10645;52.370;13.314;2024-03-07T01:38:11;5.80;99.90
20973;DHT22;10645;52.370;13.314;2024-03-07T01:40:40;5.80;99.90
20973;DHT22;10645;52.370;13.314;2024-03-07T01:43:07;5.80;99.90
20973;DHT22;10645;52.370;13.314;2024-03-07T01:45:33;5.70;99.90
20973;DHT22;10645;52.370;13.314;2024-03-07T01:48:04;5.60;99.90
20973;DHT22;10645;52.370;13.314;2024-03-07T01:50:32;5.50;99.90
20973;DHT22;10645;52.370;13.314;2024-03-07T01:52:59;5.40;99.90
20973;DHT22;10645;52.370;13.314;2024-03-07T01:55:27;5.30;99.90
20973;DHT22;10645;52.370;13.314;2024-03-07T01:57:56;5.30;99.90
20973;DHT22;10645;52.370;13.314;2024-03-07T02:00:24;5.20;99.90
20973;DHT22;10645;52.370;13.314;2024-03-07T02:02:51;5.20;99.90
20973;DHT22;10645;52.370;13.314;2024-03-07T02:05:22;5.20;99.90
20973;DHT22;10645;52.370;13.314;2024-03-07T02:07:50;5.30;99.90
20973;DHT22;10645;52.370;13.314;2024-03-07T02:10:16;5.30;99.90
20973;DHT22;10645;52.370;13.314;2024-03-07T02:12:43;5.30;99.90
20973;DHT22;10645;52.370;13.314;2024-03-07T02:15:09;5.20;99.90
20973;DHT22;10645;52.370;13.314;2024-03-07T02:17:36;5.20;99.90
20973;DHT22;10645;52.370;13.314;2024-03-07T02:20:03;5.20;99.90
20973;DHT22;10645;52.370;13.314;2024-03-07T02:22:30;5.20;99.90
20973;DHT22;10645;52.370;13.314;2024-03-07T02:24:56;5.10;99.90
20973;DHT22;10645;52.370;13.314;2024-03-07T02:27:22;5.10;99.90
20973;DHT22;10645;52.370;13.314;2024-03-07T02:29:48;5.00;99.90
20973;DHT22;10645;52.370;13.314;2024-03-07T02:32:14;5.00;99.90
20973;DHT22;10645;52.370;13.314;2024-03-07T02:34:41;4.90;99.90
20973;DHT22;10645;52.370;13.314;2024-03-07T02:37:07;5.00;99.90
20973;DHT22;10645;52.370;13.314;2024-03-07T02:39:36;4.90;99.90
20973;DHT22;10645;52.370;13.314;2024-03-07T02:42:02;4.90;99.90
20973;DHT22;10645;52.370;13.314;2024-03-07T02:44:28;4.90;99.90
20973;DHT22;10645;52.370;13.314;2024-03-07T02:46:54;4.80;99.90
20973;DHT22;10645;52.370;13.314;2024-03-07T02:49:20;4.70;99.90
20973;DHT22;10645;52.370;13.314;2024-03-07T02:51:47;4.70;99.90
20973;DHT22;10645;52.370;13.314;2024-03-07T02:54:13;4.50;99.90
20973;DHT22;10645;52.370;13.314;2024-03-07T02:56:40;4.40;99.90
20973;DHT22;10645;52.370;13.314;2024-03-07T02:59:06;4.40;99.90
20973;DHT22;10645;52.370;13.314;2024-03-07T03:01:35;4.50;99.90
20973;DHT22;10645;52.370;13.314;2024-03-07T03:04:01;4.50;99.90
20973;DHT22;10645;52.370;13.314;2024-03-07T03:06:27;4.60;99.90
20973;DHT22;10645;52.370;13.314;2024-03-07T03:08:53;4.60;99.90
20973;DHT22;10645;52.370;13.314;2024-03-07T03:11:20;4.70;99.90
20973;DHT22;10645;52.370;13.314;2024-03-07T03:13:46;4.60;99.90
20973;DHT22;10645;52.370;13.314;2024-03-07T03:16:14;4.60;99.90
20973;DHT22;10645;52.370;13.314;2024-03-07T03:18:40;4.60;99.90
20973;DHT22;10645;52.370;13.314;2024-03-07T03:21:06;4.50;99.90
20973;DHT22;10645;52.370;13.314;2024-03-07T03:23:33;4.60;99.90
20973;DHT22;10645;52.370;13.314;2024-03-07T03:26:00;4.60;99.90
20973;DHT22;10645;52.370;13.314;2024-03-07T03:28:27;4.60;99.90
20973;DHT22;10645;52.370;13.314;2024-03-07T03:30:53;4.60;99.90
20973;DHT22;10645;52.370;13.314;2024-03-07T03:33:19;4.70;99.90
20973;DHT22;10645;52.370;13.314;2024-03-07T03:35:46;4.70;99.90
20973;DHT22;10645;52.370;13.314;2024-03-07T03:38:13;4.70;99.90
20973;DHT22;10645;52.370;13.314;2024-03-07T03:40:39;4.70;99.90
20973;DHT22;10645;52.370;13.314;2024-03-07T03:43:05;4.80;99.90
20973;DHT22;10645;52.370;13.314;2024-03-07T03:45:32;4.80;99.90
20973;DHT22;10645;52.370;13.314;2024-03-07T03:47:59;4.80;99.90
20973;DHT22;10645;52.370;13.314;2024-03-07T03:50:26;4.80;99.90
20973;DHT22;10645;52.370;13.314;2024-03-07T03:52:52;4.70;99.90
20973;DHT22;10645;52.370;13.314;2024-03-07T03:55:18;4.80;99.90
20973;DHT22;10645;52.370;13.314;2024-03-07T03:57:45;4.80;99.90
20973;DHT22;10645;52.370;13.314;2024-03-07T04:00:14;4.70;99.90
20973;DHT22;10645;52.370;13.314;2024-03-07T04:02:43;4.60;99.90
20973;DHT22;10645;52.370;13.314;2024-03-07T04:05:11;4.60;99.90
20973;DHT22;10645;52.370;13.314;2024-03-07T04:07:38;4.60;99.90
20973;DHT22;10645;52.370;13.314;2024-03-07T04:10:04;4.50;99.90
20973;DHT22;10645;52.370;13.314;2024-03-07T04:12:34;4.40;99.90
20973;DHT22;10645;52.370;13.314;2024-03-07T04:15:01;4.20;99.90
20973;DHT22;10645;52.370;13.314;2024-03-07T04:17:27;4.00;99.90
20973;DHT22;10645;52.370;13.314;2024-03-07T04:19:53;3.90;99.90
20973;DHT22;10645;52.370;13.314;2024-03-07T04:22:19;3.70;99.90
20973;DHT22;10645;52.370;13.314;2024-03-07T04:24:47;3.60;99.90
20973;DHT22;10645;52.370;13.314;2024-03-07T04:27:14;3.50;99.90
20973;DHT22;10645;52.370;13.314;2024-03-07T04:29:40;3.50;99.90
20973;DHT22;10645;52.370;13.314;2024-03-07T04:32:06;3.40;99.90
20973;DHT22;10645;52.370;13.314;2024-03-07T04:34:32;3.30;99.90
20973;DHT22;10645;52.370;13.314;2024-03-07T04:36:59;3.30;99.90
20973;DHT22;10645;52.370;13.314;2024-03-07T04:39:30;3.30;99.90
20973;DHT22;10645;52.370;13.314;2024-03-07T04:41:59;3.10;99.90
20973;DHT22;10645;52.370;13.314;2024-03-07T04:44:29;3.10;99.90
20973;DHT22;10645;52.370;13.314;2024-03-07T04:46:58;3.00;99.90
20973;DHT22;10645;52.370;13.314;2024-03-07T04:49:25;2.90;99.90
20973;DHT22;10645;52.370;13.314;2024-03-07T04:51:53;2.90;99.90
20973;DHT22;10645;52.370;13.314;2024-03-07T04:54:20;2.90;99.90
20973;DHT22;10645;52.370;13.314;2024-03-07T04:56:47;2.80;99.90
20973;DHT22;10645;52.370;13.314;2024-03-07T04:59:14;2.70;99.90
20973;DHT22;10645;52.370;13.314;2024-03-07T05:01:40;2.70;99.90
20973;DHT22;10645;52.370;13.314;2024-03-07T05:04:06;2.60;99.90
20973;DHT22;10645;52.370;13.314;2024-03-07T05:06:33;2.60;99.90
20973;DHT22;10645;52.370;13.314;2024-03-07T05:09:03;2.50;99.90
20973;DHT22;10645;52.370;13.314;2024-03-07T05:11:30;2.50;99.90
20973;DHT22;10645;52.370;13.314;2024-03-07T05:13:57;2.50;99.90
20973;DHT22;10645;52.370;13.314;2024-03-07T05:16:24;2.50;99.90
20973;DHT22;10645;52.370;13.314;2024-03-07T05:18:51;2.40;99.90
20973;DHT22;10645;52.370;13.314;2024-03-07T05:21:18;2.30;99.90
20973;DHT22;10645;52.370;13.314;2024-03-07T05:24:13;2.40;99.90
20973;DHT22;10645;52.370;13.314;2024-03-07T05:26:40;2.30;99.90
20973;DHT22;10645;52.370;13.314;2024-03-07T05:29:08;2.30;99.90
20973;DHT22;10645;52.370;13.314;2024-03-07T05:31:36;2.20;99.90
20973;DHT22;10645;52.370;13.314;2024-03-07T05:34:06;2.20;99.90
20973;DHT22;10645;52.370;13.314;2024-03-07T05:36:37;2.10;99.90
20973;DHT22;10645;52.370;13.314;2024-03-07T05:39:13;2.00;99.90
20973;DHT22;10645;52.370;13.314;2024-03-07T05:41:42;2.00;99.90
20973;DHT22;10645;52.370;13.314;2024-03-07T05:44:08;2.00;99.90
20973;DHT22;10645;52.370;13.314;2024-03-07T05:46:38;1.90;99.90
20973;DHT22;10645;52.370;13.314;2024-03-07T05:49:12;1.90;99.90
20973;DHT22;10645;52.370;13.314;2024-03-07T05:51:38;1.80;99.90
20973;DHT22;10645;52.370;13.314;2024-03-07T05:54:04;1.80;99.90
20973;DHT22;10645;52.370;13.314;2024-03-07T05:56:33;1.80;99.90
20973;DHT22;10645;52.370;13.314;2024-03-07T05:59:03;1.80;99.90
20973;DHT22;10645;52.370;13.314;2024-03-07T06:01:33;2.00;99.90
20973;DHT22;10645;52.370;13.314;2024-03-07T06:04:06;2.00;99.90
20973;DHT22;10645;52.370;13.314;2024-03-07T06:06:34;2.10;99.90
20973;DHT22;10645;52.370;13.314;2024-03-07T06:09:06;2.20;99.90
20973;DHT22;10645;52.370;13.314;2024-03-07T06:11:35;2.30;99.90
20973;DHT22;10645;52.370;13.314;2024-03-07T06:14:03;2.30;99.90
20973;DHT22;10645;52.370;13.314;2024-03-07T06:16:36;2.30;99.90
20973;DHT22;10645;52.370;13.314;2024-03-07T06:19:04;2.30;99.90
20973;DHT22;10645;52.370;13.314;2024-03-07T06:21:34;2.30;99.90
20973;DHT22;10645;52.370;13.314;2024-03-07T06:24:00;2.30;99.90
20973;DHT22;10645;52.370;13.314;2024-03-07T06:26:32;2.30;99.90
20973;DHT22;10645;52.370;13.314;2024-03-07T06:29:11;2.30;99.90
20973;DHT22;10645;52.370;13.314;2024-03-07T06:31:40;2.30;99.90
20973;DHT22;10645;52.370;13.314;2024-03-07T06:34:07;2.30;99.90
20973;DHT22;10645;52.370;13.314;2024-03-07T06:36:35;2.30;99.90
20973;DHT22;10645;52.370;13.314;2024-03-07T06:39:01;2.40;99.90
20973;DHT22;10645;52.370;13.314;2024-03-07T06:41:28;2.50;99.90
20973;DHT22;10645;52.370;13.314;2024-03-07T06:43:55;2.50;99.90
20973;DHT22;10645;52.370;13.314;2024-03-07T06:46:21;2.50;99.90
20973;DHT22;10645;52.370;13.314;2024-03-07T06:48:47;2.60;99.90
20973;DHT22;10645;52.370;13.314;2024-03-07T06:51:13;2.60;99.90
20973;DHT22;10645;52.370;13.314;2024-03-07T06:53:39;2.60;99.90
20973;DHT22;10645;52.370;13.314;2024-03-07T06:56:05;2.70;99.90
20973;DHT22;10645;52.370;13.314;2024-03-07T06:58:32;2.70;99.90
20973;DHT22;10645;52.370;13.314;2024-03-07T07:00:58;2.80;99.90
20973;DHT22;10645;52.370;13.314;2024-03-07T07:03:26;2.80;99.90
20973;DHT22;10645;52.370;13.314;2024-03-07T07:05:54;2.80;99.90
20973;DHT22;10645;52.370;13.314;2024-03-07T07:08:20;2.90;99.90
20973;DHT22;10645;52.370;13.314;2024-03-07T07:10:47;3.00;99.90
20973;DHT22;10645;52.370;13.314;2024-03-07T07:13:13;3.00;99.90
20973;DHT22;10645;52.370;13.314;2024-03-07T07:15:40;3.10;99.90
20973;DHT22;10645;52.370;13.314;2024-03-07T07:18:06;3.10;99.90
20973;DHT22;10645;52.370;13.314;2024-03-07T07:20:33;3.20;99.90
20973;DHT22;10645;52.370;13.314;2024-03-07T07:23:03;3.30;99.90
20973;DHT22;10645;52.370;13.314;2024-03-07T07:25:30;3.40;99.90
20973;DHT22;10645;52.370;13.314;2024-03-07T07:27:56;3.40;99.90
20973;DHT22;10645;52.370;13.314;2024-03-07T07:30:23;3.50;99.90
20973;DHT22;10645;52.370;13.314;2024-03-07T07:32:50;3.50;99.90
20973;DHT22;10645;52.370;13.314;2024-03-07T07:35:17;3.60;99.90
20973;DHT22;10645;52.370;13.314;2024-03-07T07:37:51;3.70;99.90
20973;DHT22;10645;52.370;13.314;2024-03-07T07:40:20;3.80;99.90
20973;DHT22;10645;52.370;13.314;2024-03-07T07:42:52;3.90;99.90
20973;DHT22;10645;52.370;13.314;2024-03-07T07:45:22;3.90;99.90
20973;DHT22;10645;52.370;13.314;2024-03-07T07:47:49;3.90;99.90
20973;DHT22;10645;52.370;13.314;2024-03-07T07:50:18;4.00;99.90
20973;DHT22;10645;52.370;13.314;2024-03-07T07:52:55;4.10;99.90
20973;DHT22;10645;52.370;13.314;2024-03-07T07:55:23;4.20;99.90
20973;DHT22;10645;52.370;13.314;2024-03-07T08:00:21;4.30;99.90
20973;DHT22;10645;52.370;13.314;2024-03-07T08:02:53;4.40;99.90
20973;DHT22;10645;52.370;13.314;2024-03-07T08:05:21;4.60;99.90
20973;DHT22;10645;52.370;13.314;2024-03-07T08:07:56;4.60;99.90
20973;DHT22;10645;52.370;13.314;2024-03-07T08:10:27;4.70;99.90
20973;DHT22;10645;52.370;13.314;2024-03-07T08:12:57;4.80;99.90
20973;DHT22;10645;52.370;13.314;2024-03-07T08:15:25;4.90;99.90
20973;DHT22;10645;52.370;13.314;2024-03-07T08:17:52;4.80;99.90
20973;DHT22;10645;52.370;13.314;2024-03-07T08:20:19;4.90;99.90
20973;DHT22;10645;52.370;13.314;2024-03-07T08:22:47;5.00;99.90
20973;DHT22;10645;52.370;13.314;2024-03-07T08:25:16;5.00;99.90
20973;DHT22;10645;52.370;13.314;2024-03-07T08:27:45;5.30;99.90
20973;DHT22;10645;52.370;13.314;2024-03-07T08:30:12;5.50;99.90
20973;DHT22;10645;52.370;13.314;2024-03-07T08:32:49;5.70;99.90
20973;DHT22;10645;52.370;13.314;2024-03-07T08:35:15;5.80;99.90
20973;DHT22;10645;52.370;13.314;2024-03-07T08:37:43;5.80;99.90
20973;DHT22;10645;52.370;13.314;2024-03-07T08:40:12;5.80;99.90
20973;DHT22;10645;52.370;13.314;2024-03-07T08:42:49;5.80;99.90
20973;DHT22;10645;52.370;13.314;2024-03-07T08:45:17;5.90;99.90
20973;DHT22;10645;52.370;13.314;2024-03-07T08:47:46;5.90;99.90
20973;DHT22;10645;52.370;13.314;2024-03-07T08:50:13;6.10;99.90
20973;DHT22;10645;52.370;13.314;2024-03-07T08:52:40;6.10;99.90
20973;DHT22;10645;52.370;13.314;2024-03-07T08:55:07;6.20;99.90
20973;DHT22;10645;52.370;13.314;2024-03-07T08:57:37;6.30;99.90
20973;DHT22;10645;52.370;13.314;2024-03-07T09:00:04;6.30;99.90
20973;DHT22;10645;52.370;13.314;2024-03-07T09:02:50;6.50;99.90
20973;DHT22;10645;52.370;13.314;2024-03-07T09:05:18;6.60;99.90
20973;DHT22;10645;52.370;13.314;2024-03-07T09:07:45;6.70;99.90
20973;DHT22;10645;52.370;13.314;2024-03-07T09:10:13;6.80;99.90
20973;DHT22;10645;52.370;13.314;2024-03-07T09:12:40;7.00;99.90
20973;DHT22;10645;52.370;13.314;2024-03-07T09:15:07;7.30;99.90
20973;DHT22;10645;52.370;13.314;2024-03-07T09:17:33;7.30;99.90
20973;DHT22;10645;52.370;13.314;2024-03-07T09:19:59;7.00;99.90
20973;DHT22;10645;52.370;13.314;2024-03-07T09:22:25;7.00;99.90
20973;DHT22;10645;52.370;13.314;2024-03-07T09:24:51;7.10;99.90
20973;DHT22;10645;52.370;13.314;2024-03-07T09:27:17;7.20;99.90
20973;DHT22;10645;52.370;13.314;2024-03-07T09:29:45;7.40;99.90
20973;DHT22;10645;52.370;13.314;2024-03-07T09:32:13;7.60;99.90
20973;DHT22;10645;52.370;13.314;2024-03-07T09:34:39;7.60;99.90
20973;DHT22;10645;52.370;13.314;2024-03-07T09:37:05;7.50;99.90
20973;DHT22;10645;52.370;13.314;2024-03-07T09:39:35;7.60;99.90
20973;DHT22;10645;52.370;13.314;2024-03-07T09:42:02;7.70;99.90
20973;DHT22;10645;52.370;13.314;2024-03-07T09:44:28;7.90;99.90
20973;DHT22;10645;52.370;13.314;2024-03-07T09:46:55;7.90;99.90
20973;DHT22;10645;52.370;13.314;2024-03-07T09:49:24;7.90;99.90
20973;DHT22;10645;52.370;13.314;2024-03-07T09:51:51;8.10;99.90
20973;DHT22;10645;52.370;13.314;2024-03-07T09:54:21;8.30;99.90
20973;DHT22;10645;52.370;13.314;2024-03-07T09:56:53;8.50;99.90
20973;DHT22;10645;52.370;13.314;2024-03-07T09:59:20;8.50;99.90
20973;DHT22;10645;52.370;13.314;2024-03-07T10:01:51;8.50;99.90
20973;DHT22;10645;52.370;13.314;2024-03-07T10:04:47;8.60;99.90
20973;DHT22;10645;52.370;13.314;2024-03-07T10:07:11;8.70;99.90
20973;DHT22;10645;52.370;13.314;2024-03-07T10:09:40;8.80;99.90
20973;DHT22;10645;52.370;13.314;2024-03-07T10:12:08;8.70;99.90
20973;DHT22;10645;52.370;13.314;2024-03-07T10:14:38;8.70;99.90
20973;DHT22;10645;52.370;13.314;2024-03-07T10:17:05;8.80;99.90
20973;DHT22;10645;52.370;13.314;2024-03-07T10:19:31;8.80;99.90
20973;DHT22;10645;52.370;13.314;2024-03-07T10:21:57;8.90;99.90
20973;DHT22;10645;52.370;13.314;2024-03-07T10:24:27;8.80;99.90
20973;DHT22;10645;52.370;13.314;2024-03-07T10:26:54;8.90;99.90
20973;DHT22;10645;52.370;13.314;2024-03-07T10:29:24;8.90;99.90
20973;DHT22;10645;52.370;13.314;2024-03-07T10:31:50;8.80;99.90
20973;DHT22;10645;52.370;13.314;2024-03-07T10:34:16;8.80;99.90
20973;DHT22;10645;52.370;13.314;2024-03-07T10:36:43;8.70;99.90
20973;DHT22;10645;52.370;13.314;2024-03-07T10:39:09;8.90;99.90
20973;DHT22;10645;52.370;13.314;2024-03-07T10:41:49;8.40;99.90
20973;DHT22;10645;52.370;13.314;2024-03-07T10:44:20;8.40;99.90
20973;DHT22;10645;52.370;13.314;2024-03-07T10:46:52;8.50;99.90
20973;DHT22;10645;52.370;13.314;2024-03-07T10:49:20;8.60;99.90
20973;DHT22;10645;52.370;13.314;2024-03-07T10:52:28;8.80;99.90
20973;DHT22;10645;52.370;13.314;2024-03-07T10:58:02;9.00;99.90
20973;DHT22;10645;52.370;13.314;2024-03-07T11:00:32;9.10;99.90
20973;DHT22;10645;52.370;13.314;2024-03-07T11:03:02;9.20;99.90
20973;DHT22;10645;52.370;13.314;2024-03-07T11:05:35;9.10;99.90
20973;DHT22;10645;52.370;13.314;2024-03-07T11:08:03;9.10;99.90
20973;DHT22;10645;52.370;13.314;2024-03-07T11:10:37;9.30;99.90
20973;DHT22;10645;52.370;13.314;2024-03-07T11:13:08;9.50;99.90
20973;DHT22;10645;52.370;13.314;2024-03-07T11:15:36;9.70;99.90
20973;DHT22;10645;52.370;13.314;2024-03-07T11:18:03;9.80;99.90
20973;DHT22;10645;52.370;13.314;2024-03-07T11:20:37;9.30;99.90
20973;DHT22;10645;52.370;13.314;2024-03-07T11:23:24;9.20;99.90
20973;DHT22;10645;52.370;13.314;2024-03-07T11:25:54;9.30;99.90
20973;DHT22;10645;52.370;13.314;2024-03-07T11:28:28;9.60;99.90
20973;DHT22;10645;52.370;13.314;2024-03-07T11:31:06;9.70;99.90
20973;DHT22;10645;52.370;13.314;2024-03-07T11:33:32;10.00;99.90
20973;DHT22;10645;52.370;13.314;2024-03-07T11:35:59;10.00;99.90
20973;DHT22;10645;52.370;13.314;2024-03-07T11:38:31;10.00;99.90
20973;DHT22;10645;52.370;13.314;2024-03-07T11:41:00;10.00;99.90
20973;DHT22;10645;52.370;13.314;2024-03-07T11:43:32;10.10;99.90
20973;DHT22;10645;52.370;13.314;2024-03-07T11:45:59;10.30;99.90
20973;DHT22;10645;52.370;13.314;2024-03-07T11:48:25;10.20;99.90
20973;DHT22;10645;52.370;13.314;2024-03-07T11:50:51;10.10;99.90
20973;DHT22;10645;52.370;13.314;2024-03-07T11:53:18;10.20;99.90
20973;DHT22;10645;52.370;13.314;2024-03-07T11:55:44;10.00;99.90
20973;DHT22;10645;52.370;13.314;2024-03-07T11:58:20;10.00;99.90
20973;DHT22;10645;52.370;13.314;2024-03-07T12:00:51;10.00;99.90
20973;DHT22;10645;52.370;13.314;2024-03-07T12:03:18;9.60;99.90
20973;DHT22;10645;52.370;13.314;2024-03-07T12:05:47;9.30;99.90
20973;DHT22;10645;52.370;13.314;2024-03-07T12:08:14;9.10;99.90
20973;DHT22;10645;52.370;13.314;2024-03-07T12:10:43;9.20;99.90
20973;DHT22;10645;52.370;13.314;2024-03-07T12:13:10;9.00;99.90
20973;DHT22;10645;52.370;13.314;2024-03-07T12:15:43;9.10;99.90
20973;DHT22;10645;52.370;13.314;2024-03-07T12:18:10;8.70;99.90
20973;DHT22;10645;52.370;13.314;2024-03-07T12:20:37;8.60;99.90
20973;DHT22;10645;52.370;13.314;2024-03-07T12:23:05;8.50;99.90
20973;DHT22;10645;52.370;13.314;2024-03-07T12:25:43;8.40;99.90
20973;DHT22;10645;52.370;13.314;2024-03-07T12:33:15;8.30;99.90
20973;DHT22;10645;52.370;13.314;2024-03-07T12:35:50;8.40;99.90
20973;DHT22;10645;52.370;13.314;2024-03-07T12:38:19;8.60;99.90
20973;DHT22;10645;52.370;13.314;2024-03-07T12:40:45;8.80;99.90
20973;DHT22;10645;52.370;13.314;2024-03-07T12:43:19;9.00;99.90
20973;DHT22;10645;52.370;13.314;2024-03-07T12:45:50;8.90;99.90
20973;DHT22;10645;52.370;13.314;2024-03-07T12:48:17;8.90;99.90
20973;DHT22;10645;52.370;13.314;2024-03-07T12:50:47;9.00;99.90
20973;DHT22;10645;52.370;13.314;2024-03-07T12:53:20;8.80;99.90
20973;DHT22;10645;52.370;13.314;2024-03-07T12:55:47;8.50;99.90
20973;DHT22;10645;52.370;13.314;2024-03-07T12:58:14;8.50;99.90
20973;DHT22;10645;52.370;13.314;2024-03-07T13:00:41;8.50;99.90
20973;DHT22;10645;52.370;13.314;2024-03-07T13:03:08;8.50;99.90
20973;DHT22;10645;52.370;13.314;2024-03-07T13:05:39;8.70;99.90
20973;DHT22;10645;52.370;13.314;2024-03-07T13:08:09;8.80;99.90
20973;DHT22;10645;52.370;13.314;2024-03-07T13:10:39;8.80;98.80
20973;DHT22;10645;52.370;13.314;2024-03-07T13:13:06;8.80;99.20
20973;DHT22;10645;52.370;13.314;2024-03-07T13:15:32;8.80;99.40
20973;DHT22;10645;52.370;13.314;2024-03-07T13:17:58;8.70;99.90
20973;DHT22;10645;52.370;13.314;2024-03-07T13:20:25;8.60;99.90
20973;DHT22;10645;52.370;13.314;2024-03-07T13:22:56;8.50;99.90
20973;DHT22;10645;52.370;13.314;2024-03-07T13:25:25;8.50;99.90
20973;DHT22;10645;52.370;13.314;2024-03-07T13:30:34;8.60;99.20
20973;DHT22;10645;52.370;13.314;2024-03-07T13:33:02;8.40;98.20
20973;DHT22;10645;52.370;13.314;2024-03-07T13:35:29;8.50;98.90
20973;DHT22;10645;52.370;13.314;2024-03-07T13:37:56;8.40;98.40
20973;DHT22;10645;52.370;13.314;2024-03-07T13:40:23;8.40;99.00
20973;DHT22;10645;52.370;13.314;2024-03-07T13:42:55;8.50;98.70
20973;DHT22;10645;52.370;13.314;2024-03-07T13:45:23;8.40;99.40
20973;DHT22;10645;52.370;13.314;2024-03-07T13:47:53;8.40;99.00
20973;DHT22;10645;52.370;13.314;2024-03-07T13:50:21;8.20;98.70
20973;DHT22;10645;52.370;13.314;2024-03-07T13:52:55;8.10;99.70
20973;DHT22;10645;52.370;13.314;2024-03-07T14:01:32;8.00;99.80
20973;DHT22;10645;52.370;13.314;2024-03-07T14:04:24;7.90;99.90
20973;DHT22;10645;52.370;13.314;2024-03-07T14:07:06;7.90;99.90
20973;DHT22;10645;52.370;13.314;2024-03-07T14:10:18;7.80;99.90
20973;DHT22;10645;52.370;13.314;2024-03-07T14:21:51;7.70;99.90
20973;DHT22;10645;52.370;13.314;2024-03-07T14:24:45;7.70;99.90
20973;DHT22;10645;52.370;13.314;2024-03-07T14:32:22;7.60;99.90
20973;DHT22;10645;52.370;13.314;2024-03-07T14:35:22;7.60;99.90
20973;DHT22;10645;52.370;13.314;2024-03-07T14:38:01;7.50;99.90
20973;DHT22;10645;52.370;13.314;2024-03-07T14:40:28;7.50;99.90
20973;DHT22;10645;52.370;13.314;2024-03-07T14:42:56;7.40;99.90
20973;DHT22;10645;52.370;13.314;2024-03-07T14:45:30;7.50;99.90
20973;DHT22;10645;52.370;13.314;2024-03-07T14:47:57;7.50;99.90
20973;DHT22;10645;52.370;13.314;2024-03-07T14:50:24;7.40;99.90
20973;DHT22;10645;52.370;13.314;2024-03-07T14:52:53;7.40;99.90
20973;DHT22;10645;52.370;13.314;2024-03-07T14:55:19;7.40;99.90
20973;DHT22;10645;52.370;13.314;2024-03-07T14:57:45;7.50;99.90
20973;DHT22;10645;52.370;13.314;2024-03-07T15:00:12;7.50;99.90
20973;DHT22;10645;52.370;13.314;2024-03-07T15:02:49;7.50;99.90
20973;DHT22;10645;52.370;13.314;2024-03-07T15:05:16;7.40;99.90
20973;DHT22;10645;52.370;13.314;2024-03-07T15:07:46;7.40;99.90
20973;DHT22;10645;52.370;13.314;2024-03-07T15:10:25;7.30;99.90
20973;DHT22;10645;52.370;13.314;2024-03-07T15:12:53;7.20;99.90
20973;DHT22;10645;52.370;13.314;2024-03-07T15:15:19;7.20;99.90
20973;DHT22;10645;52.370;13.314;2024-03-07T15:17:46;7.10;99.90
20973;DHT22;10645;52.370;13.314;2024-03-07T15:20:12;7.10;99.90
20973;DHT22;10645;52.370;13.314;2024-03-07T15:22:52;7.10;99.90
20973;DHT22;10645;52.370;13.314;2024-03-07T15:25:19;7.10;99.90
20973;DHT22;10645;52.370;13.314;2024-03-07T15:27:45;7.10;99.90
20973;DHT22;10645;52.370;13.314;2024-03-07T15:30:16;7.00;99.90
20973;DHT22;10645;52.370;13.314;2024-03-07T15:32:43;7.00;99.90
20973;DHT22;10645;52.370;13.314;2024-03-07T15:35:10;6.90;99.90
20973;DHT22;10645;52.370;13.314;2024-03-07T15:37:48;6.90;99.90
20973;DHT22;10645;52.370;13.314;2024-03-07T15:40:17;6.80;99.90
20973;DHT22;10645;52.370;13.314;2024-03-07T15:42:45;6.80;99.90
20973;DHT22;10645;52.370;13.314;2024-03-07T15:47:46;6.80;99.90
20973;DHT22;10645;52.370;13.314;2024-03-07T15:50:13;6.80;99.90
20973;DHT22;10645;52.370;13.314;2024-03-07T15:52:41;6.70;99.90
20973;DHT22;10645;52.370;13.314;2024-03-07T15:55:08;6.70;99.90
20973;DHT22;10645;52.370;13.314;2024-03-07T16:00:16;6.60;99.90
20973;DHT22;10645;52.370;13.314;2024-03-07T16:02:51;6.60;99.90
20973;DHT22;10645;52.370;13.314;2024-03-07T16:05:17;6.60;99.90
20973;DHT22;10645;52.370;13.314;2024-03-07T16:07:44;6.50;99.90
20973;DHT22;10645;52.370;13.314;2024-03-07T16:10:10;6.40;99.90
20973;DHT22;10645;52.370;13.314;2024-03-07T16:12:39;6.20;99.90
20973;DHT22;10645;52.370;13.314;2024-03-07T16:15:07;6.20;99.90
20973;DHT22;10645;52.370;13.314;2024-03-07T16:17:36;6.20;99.90
20973;DHT22;10645;52.370;13.314;2024-03-07T16:20:03;6.00;99.90